Portada
METAR-TAF:

METAR-TAF

Aeropuertos :

Chlef, Argelia

latitud: 36-13N, longitud: 001-20E, altitud: 143 m

Observación

El informe se hizo hace 47 minutos, a las 12:00 UTC
Viento 3 kt del sur-sureste
Temperatura 11°C
Humedad 71%
Presión 1031 hPa
Visibilidad 10 km o más
Escasas nubes a una altura de 2300 ft
Cielo nuboso a una altura de 2600 ft

METAR: DAOI 031200Z 15003KT 9999 FEW023 BKN026 11/06 Q1031

Hora: 13:47 (12:47 UTC)

Pronóstico

El informe se hizo hace 1 hora y 47 minutos, a las 11:00 UTC
Pronóstico válido del 03 a las 12 UTC al 04 a las 12 UTC
Viento 2 kt con dirección variable
Visibilidad 10 km o más
Escasas nubes a una altura de 2300 ft
Nubes dispersas a una altura de 2600 ft

TAF: DAOI 031100Z 0312/0412 VRB02KT 9999 FEW023 SCT026

Observaciones y pronósticos meteorológicos de más de 4000 aeropuertos (mensajes METAR y TAF).

Los puntos amarillos y rojos representan las estaciones disponibles.

Ponga el ratón en el punto deseado para ver el nombre de la estación.

Haga clic para ver las observaciones y los pronósticos meteorológicos.

Para cambiar el mapa : haga clic en los botones verdes con una cruz de color negro para hacer un zoom, en el botón verde con un guión para alejar o en las flechas verdes para mapas adyacentes.


METAR-TAF: